Time;durP1;ratioP1;P1;durP2;ratioP2;P2;SDS_P1;SDS_P2;PMS_P1;PMS_P2;Temp;Humidity;BMP_temperature;BMP_pressure;BME280_temperature;BME280_humidity;BME280_pressure;Samples;Min_cycle;Max_cycle;Signal;HPM_P1;HPM_P2
2022/04/05 00:01:27;;;;;;;35.92;20.80;;;9.20;85.90;;;;;;4880141;29;20056;-85
2022/04/05 00:03:55;;;;;;;42.88;20.65;;;9.20;85.90;;;;;;4891917;29;20133;-85
2022/04/05 00:06:22;;;;;;;31.15;20.05;;;9.20;85.90;;;;;;4890456;29;20084;-85
2022/04/05 00:08:49;;;;;;;31.35;19.58;;;9.30;86.00;;;;;;4886155;29;20422;-85
2022/04/05 00:11:16;;;;;;;47.13;21.60;;;9.20;86.00;;;;;;4885157;29;20049;-86
2022/04/05 00:13:43;;;;;;;41.20;21.40;;;9.30;86.00;;;;;;4883018;29;20053;-86
2022/04/05 00:16:10;;;;;;;41.78;19.88;;;9.30;86.00;;;;;;4883956;29;20057;-87
2022/04/05 00:18:38;;;;;;;46.22;20.30;;;9.30;86.00;;;;;;4886966;29;20053;-86
2022/04/05 00:21:06;;;;;;;37.63;19.63;;;9.30;86.00;;;;;;4887254;29;20068;-86
2022/04/05 00:23:33;;;;;;;35.13;18.70;;;9.30;86.00;;;;;;4886157;29;20052;-86
2022/04/05 00:26:01;;;;;;;32.92;18.65;;;9.40;86.00;;;;;;4883178;29;20108;-87
2022/04/05 00:28:28;;;;;;;43.17;20.88;;;9.30;86.00;;;;;;4883798;29;20124;-86
2022/04/05 00:30:54;;;;;;;36.10;19.90;;;9.30;86.00;;;;;;4887114;29;20455;-86
2022/04/05 00:33:22;;;;;;;43.67;20.70;;;9.30;86.00;;;;;;4885501;29;20060;-85
2022/04/05 00:35:50;;;;;;;36.72;18.63;;;9.40;86.00;;;;;;4885836;29;20059;-85
2022/04/05 00:38:17;;;;;;;30.60;16.77;;;9.40;86.10;;;;;;4884978;29;20067;-86
2022/04/05 00:40:44;;;;;;;40.42;18.75;;;9.40;86.10;;;;;;4882378;29;20506;-86
2022/04/05 00:43:11;;;;;;;41.45;19.92;;;9.40;86.10;;;;;;4883567;29;20056;-86
2022/04/05 00:45:37;;;;;;;48.80;20.65;;;9.40;86.10;;;;;;4886795;29;20514;-86
2022/04/05 00:48:06;;;;;;;50.25;20.73;;;9.40;86.10;;;;;;4886404;29;20049;-86
2022/04/05 00:50:36;;;;;;;43.83;19.15;;;9.50;86.20;;;;;;4886740;29;20050;-85
2022/04/05 00:53:07;;;;;;;47.55;20.02;;;9.50;86.20;;;;;;4882896;29;20048;-85
2022/04/05 00:55:35;;;;;;;53.05;19.50;;;9.50;86.20;;;;;;4882421;29;20525;-86
2022/04/05 00:58:03;;;;;;;47.63;20.40;;;9.50;86.20;;;;;;4896589;29;20057;-86
2022/04/05 01:00:32;;;;;;;43.35;19.70;;;9.50;86.20;;;;;;4889683;29;20403;-86
2022/04/05 01:03:00;;;;;;;44.15;20.58;;;9.60;86.20;;;;;;4886134;29;20422;-85
2022/04/05 01:05:28;;;;;;;56.17;19.95;;;9.60;86.20;;;;;;4885921;29;20068;-85
2022/04/05 01:07:59;;;;;;;45.55;20.05;;;9.60;86.30;;;;;;4881978;29;20058;-85
2022/04/05 01:10:28;;;;;;;49.83;21.17;;;9.60;86.30;;;;;;4897523;29;20048;-85
2022/04/05 01:12:56;;;;;;;37.40;19.23;;;9.70;86.30;;;;;;4886471;29;20060;-85
2022/04/05 01:15:23;;;;;;;56.55;20.40;;;9.70;86.30;;;;;;4886049;29;20097;-85
2022/04/05 01:17:51;;;;;;;50.00;20.52;;;9.70;86.30;;;;;;4885635;29;20044;-85
2022/04/05 01:20:18;;;;;;;46.17;20.40;;;9.70;86.30;;;;;;4883301;29;20502;-86
2022/04/05 01:22:47;;;;;;;43.13;18.30;;;9.70;86.30;;;;;;4881761;29;20060;-85
2022/04/05 01:25:16;;;;;;;42.22;20.00;;;9.70;86.30;;;;;;4884340;29;20049;-85
2022/04/05 01:27:43;;;;;;;53.42;20.52;;;9.70;86.30;;;;;;4886080;29;20490;-85
2022/04/05 01:30:10;;;;;;;52.55;19.98;;;9.80;86.30;;;;;;4886232;29;20049;-85
2022/04/05 01:32:38;;;;;;;44.90;21.05;;;9.80;86.30;;;;;;4886374;29;20104;-85
2022/04/05 01:35:06;;;;;;;45.50;19.00;;;9.80;86.30;;;;;;4896855;29;20065;-85
2022/04/05 01:37:33;;;;;;;40.15;19.20;;;9.80;86.30;;;;;;4881958;29;20069;-85
2022/04/05 01:40:01;;;;;;;41.70;18.67;;;9.80;86.30;;;;;;4884495;29;20105;-85
2022/04/05 01:42:28;;;;;;;48.00;21.40;;;9.80;86.30;;;;;;4885988;29;20057;-85
2022/04/05 01:44:55;;;;;;;53.63;21.05;;;9.90;86.30;;;;;;4885736;29;20045;-85
2022/04/05 01:47:22;;;;;;;48.40;20.50;;;9.90;86.30;;;;;;4884734;29;20067;-84
2022/04/05 01:49:49;;;;;;;46.45;21.05;;;9.80;86.30;;;;;;4881563;29;20057;-85
2022/04/05 01:52:17;;;;;;;46.10;20.45;;;9.90;86.30;;;;;;4883824;29;20448;-84
2022/04/05 01:54:45;;;;;;;48.05;19.67;;;9.90;86.30;;;;;;4885992;29;20071;-84
2022/04/05 01:57:12;;;;;;;37.33;19.00;;;9.90;86.30;;;;;;4885901;29;20053;-84
2022/04/05 01:59:40;;;;;;;46.78;19.67;;;9.90;86.30;;;;;;4885593;29;20051;-84
2022/04/05 02:02:11;;;;;;;34.28;17.73;;;9.90;86.30;;;;;;4881485;29;20060;-86
2022/04/05 02:04:38;;;;;;;32.40;17.08;;;9.90;86.30;;;;;;4880661;29;20049;-86
2022/04/05 02:07:16;;;;;;;46.92;19.17;;;9.90;86.30;;;;;;4885115;29;20085;-85
2022/04/05 02:09:47;;;;;;;37.67;17.50;;;9.90;86.30;;;;;;4885897;29;20053;-85
2022/04/05 02:12:15;;;;;;;41.10;16.80;;;9.90;86.30;;;;;;4885521;29;20112;-85
2022/04/05 02:14:42;;;;;;;40.60;17.50;;;9.90;86.30;;;;;;4884285;29;20463;-85
2022/04/05 02:17:11;;;;;;;35.65;16.98;;;9.90;86.20;;;;;;4882874;29;20071;-84
2022/04/05 02:19:40;;;;;;;29.75;17.35;;;9.90;86.20;;;;;;4881550;29;20053;-84
2022/04/05 02:22:07;;;;;;;45.00;18.63;;;9.90;86.20;;;;;;4884512;29;20448;-84
2022/04/05 02:24:34;;;;;;;29.30;16.40;;;9.90;86.20;;;;;;4885733;29;20056;-85
2022/04/05 02:27:02;;;;;;;32.90;17.65;;;9.90;86.20;;;;;;4886232;29;20077;-85
2022/04/05 02:29:28;;;;;;;35.17;18.42;;;9.90;86.20;;;;;;4888351;29;20044;-86
2022/04/05 02:31:55;;;;;;;40.42;17.35;;;10.00;86.20;;;;;;4884685;29;20048;-85
2022/04/05 02:34:22;;;;;;;36.63;18.80;;;9.90;86.20;;;;;;4886358;29;20113;-86
2022/04/05 02:36:49;;;;;;;34.25;18.35;;;9.90;86.30;;;;;;4889000;29;20649;-86
2022/04/05 02:39:16;;;;;;;42.60;18.70;;;10.00;86.30;;;;;;4887848;29;20573;-85
2022/04/05 02:41:43;;;;;;;33.45;17.42;;;10.00;86.30;;;;;;4887872;29;20044;-85
2022/04/05 02:44:10;;;;;;;36.67;18.58;;;9.90;86.30;;;;;;4884676;29;20044;-85
2022/04/05 02:46:37;;;;;;;36.58;18.67;;;10.00;86.30;;;;;;4884554;29;20053;-85
2022/04/05 02:49:04;;;;;;;44.90;19.92;;;10.00;86.30;;;;;;4888461;29;20573;-86
2022/04/05 02:51:31;;;;;;;38.63;19.48;;;10.00;86.30;;;;;;4888727;29;20061;-86
2022/04/05 02:53:59;;;;;;;41.17;21.67;;;10.00;86.30;;;;;;4887764;29;20049;-85
2022/04/05 02:56:26;;;;;;;39.65;21.10;;;10.00;86.30;;;;;;4887808;29;20100;-84
2022/04/05 02:58:53;;;;;;;38.88;20.65;;;10.00;86.30;;;;;;4882836;29;20044;-85
2022/04/05 03:01:20;;;;;;;47.67;22.65;;;10.00;86.30;;;;;;4885951;29;20489;-84
2022/04/05 03:03:47;;;;;;;43.75;22.60;;;10.10;86.40;;;;;;4888783;29;20442;-85
2022/04/05 03:06:15;;;;;;;49.25;22.38;;;10.10;86.40;;;;;;4888652;29;20044;-84
2022/04/05 03:08:42;;;;;;;39.83;22.30;;;10.10;86.40;;;;;;4888532;29;20048;-85
2022/04/05 03:11:09;;;;;;;42.47;22.73;;;10.10;86.40;;;;;;4884273;29;20056;-85
2022/04/05 03:13:36;;;;;;;52.35;24.05;;;10.10;86.40;;;;;;4883982;29;20105;-85
2022/04/05 03:16:03;;;;;;;50.47;24.10;;;10.10;86.40;;;;;;4897348;29;20049;-84
2022/04/05 03:18:30;;;;;;;52.42;24.35;;;10.10;86.40;;;;;;4891656;29;20449;-85
2022/04/05 03:20:57;;;;;;;43.88;23.13;;;10.10;86.40;;;;;;4887201;29;20447;-85
2022/04/05 03:23:26;;;;;;;47.03;22.83;;;10.10;86.40;;;;;;4887321;29;20052;-85
2022/04/05 03:25:53;;;;;;;52.85;23.08;;;10.10;86.40;;;;;;4883694;29;20486;-84
2022/04/05 03:28:20;;;;;;;44.95;22.42;;;10.10;86.40;;;;;;4885565;29;20057;-84
2022/04/05 03:30:48;;;;;;;46.70;22.17;;;10.10;86.40;;;;;;4888003;29;20057;-85
2022/04/05 03:33:15;;;;;;;47.53;22.90;;;10.10;86.40;;;;;;4888040;29;20105;-85
2022/04/05 03:35:42;;;;;;;45.85;22.42;;;10.20;86.40;;;;;;4886990;29;20056;-85
2022/04/05 03:38:09;;;;;;;48.47;22.73;;;10.20;86.40;;;;;;4883954;29;20048;-85
2022/04/05 03:40:36;;;;;;;44.60;22.98;;;10.10;86.40;;;;;;4882775;29;20521;-84
2022/04/05 03:43:05;;;;;;;43.30;21.50;;;10.20;86.40;;;;;;4897718;29;20053;-84
2022/04/05 03:45:32;;;;;;;42.72;22.15;;;10.20;86.40;;;;;;4890880;29;20057;-85
2022/04/05 03:47:59;;;;;;;39.80;21.52;;;10.20;86.40;;;;;;4887745;29;20048;-85
2022/04/05 03:50:26;;;;;;;38.03;20.75;;;10.20;86.40;;;;;;4887032;29;20056;-85
2022/04/05 03:52:52;;;;;;;33.85;21.35;;;10.20;86.40;;;;;;4883400;29;20052;-84
2022/04/05 03:55:19;;;;;;;40.90;20.90;;;10.20;86.40;;;;;;4885203;29;20420;-84
2022/04/05 03:57:46;;;;;;;41.72;21.08;;;10.20;86.40;;;;;;4887741;29;20121;-85
2022/04/05 04:00:14;;;;;;;32.78;20.90;;;10.20;86.40;;;;;;4887730;29;20124;-85
2022/04/05 04:02:41;;;;;;;42.22;21.50;;;10.20;86.40;;;;;;4886415;29;20064;-84
2022/04/05 04:05:08;;;;;;;40.65;21.13;;;10.20;86.40;;;;;;4884480;29;20044;-84
2022/04/05 04:07:39;;;;;;;51.78;22.23;;;10.20;86.40;;;;;;4882075;29;20112;-85
2022/04/05 04:10:06;;;;;;;47.85;21.05;;;10.20;86.40;;;;;;4897584;29;20049;-85
2022/04/05 04:12:33;;;;;;;32.80;20.67;;;10.20;86.40;;;;;;4890073;29;20061;-85
2022/04/05 04:15:01;;;;;;;43.05;22.25;;;10.20;86.40;;;;;;4887500;29;20463;-84
2022/04/05 04:17:28;;;;;;;44.60;22.33;;;10.20;86.40;;;;;;4886740;29;20048;-85
2022/04/05 04:19:55;;;;;;;45.30;21.70;;;10.20;86.40;;;;;;4882903;29;20050;-85
2022/04/05 04:22:22;;;;;;;49.30;22.85;;;10.20;86.40;;;;;;4884352;29;20060;-86
2022/04/05 04:24:49;;;;;;;43.70;21.38;;;10.20;86.40;;;;;;4886842;29;20053;-86
2022/04/05 04:27:16;;;;;;;43.65;23.02;;;10.20;86.40;;;;;;4886990;29;20455;-86
2022/04/05 04:29:43;;;;;;;42.63;22.73;;;10.20;86.40;;;;;;4887100;29;20108;-85
2022/04/05 04:32:10;;;;;;;42.50;23.13;;;10.20;86.40;;;;;;4884221;29;20055;-86
2022/04/05 04:34:37;;;;;;;39.78;21.95;;;10.20;86.40;;;;;;4882862;29;20053;-86
2022/04/05 04:37:04;;;;;;;42.15;22.38;;;10.20;86.40;;;;;;4897192;29;20059;-85
2022/04/05 04:39:33;;;;;;;43.45;21.25;;;10.20;86.40;;;;;;4889607;29;20515;-86
2022/04/05 04:42:00;;;;;;;44.90;21.55;;;10.20;86.40;;;;;;4886890;29;20049;-85
2022/04/05 04:44:27;;;;;;;37.60;21.10;;;10.20;86.40;;;;;;4886168;29;20048;-85
2022/04/05 04:46:54;;;;;;;45.72;21.73;;;10.20;86.40;;;;;;4882086;29;20482;-86
2022/04/05 04:49:21;;;;;;;39.08;20.77;;;10.20;86.40;;;;;;4884322;29;20057;-85
2022/04/05 04:51:48;;;;;;;38.33;20.20;;;10.20;86.40;;;;;;4886552;29;20101;-86
2022/04/05 04:54:15;;;;;;;39.42;20.83;;;10.20;86.40;;;;;;4885222;29;20057;-85
2022/04/05 04:56:41;;;;;;;44.20;20.55;;;10.20;86.40;;;;;;4886530;29;20040;-85
2022/04/05 04:59:08;;;;;;;42.88;19.98;;;10.20;86.40;;;;;;4883438;29;20116;-86
2022/04/05 05:01:35;;;;;;;37.58;20.70;;;10.20;86.40;;;;;;4882265;29;20403;-86
2022/04/05 05:04:02;;;;;;;39.85;19.60;;;10.20;86.40;;;;;;4896434;29;20056;-85
2022/04/05 05:06:29;;;;;;;37.28;20.92;;;10.20;86.40;;;;;;4889767;29;20137;-85
2022/04/05 05:08:56;;;;;;;39.90;20.77;;;10.20;86.40;;;;;;4886070;29;20049;-85
2022/04/05 05:11:23;;;;;;;39.05;20.92;;;10.20;86.30;;;;;;4885112;29;20161;-87
2022/04/05 05:13:50;;;;;;;38.20;20.55;;;10.20;86.30;;;;;;4882080;29;20049;-87
2022/04/05 05:16:17;;;;;;;35.60;20.25;;;10.20;86.30;;;;;;4884108;29;20570;-86
2022/04/05 05:18:44;;;;;;;35.55;19.15;;;10.20;86.30;;;;;;4885241;29;20526;-86
2022/04/05 05:21:11;;;;;;;41.10;19.17;;;10.20;86.30;;;;;;4886173;29;20056;-85
2022/04/05 05:23:38;;;;;;;32.47;19.30;;;10.20;86.30;;;;;;4885942;29;20056;-85
2022/04/05 05:26:05;;;;;;;33.20;19.35;;;10.20;86.30;;;;;;4882538;29;20131;-84
2022/04/05 05:28:32;;;;;;;37.28;19.65;;;10.20;86.30;;;;;;4882182;29;20100;-85
2022/04/05 05:30:59;;;;;;;31.98;19.35;;;10.20;86.30;;;;;;4885705;29;20053;-85
2022/04/05 05:33:26;;;;;;;33.55;19.65;;;10.20;86.30;;;;;;4886072;29;20061;-86
2022/04/05 05:35:53;;;;;;;38.35;20.35;;;10.20;86.30;;;;;;4886066;29;20052;-86
2022/04/05 05:38:20;;;;;;;33.63;18.67;;;10.20;86.30;;;;;;4883006;29;20060;-85
2022/04/05 05:40:47;;;;;;;33.15;17.40;;;10.20;86.30;;;;;;4881617;29;20525;-85
2022/04/05 05:43:14;;;;;;;34.15;18.58;;;10.20;86.20;;;;;;4884225;29;20091;-85
2022/04/05 05:45:41;;;;;;;33.00;17.63;;;10.20;86.30;;;;;;4885919;29;20073;-85
2022/04/05 05:48:08;;;;;;;30.60;17.13;;;10.20;86.30;;;;;;4890634;29;20056;-87
2022/04/05 05:50:37;;;;;;;32.53;17.95;;;10.20;86.30;;;;;;4896375;29;20080;-87
2022/04/05 05:53:04;;;;;;;34.42;18.42;;;10.20;86.20;;;;;;4882019;29;20048;-86
2022/04/05 05:55:32;;;;;;;31.65;18.05;;;10.20;86.20;;;;;;4882250;29;20133;-86
2022/04/05 05:58:02;;;;;;;36.28;17.98;;;10.20;86.20;;;;;;4894608;29;20056;-86
2022/04/05 06:00:29;;;;;;;30.80;18.58;;;10.20;86.20;;;;;;4894123;29;20104;-86
2022/04/05 06:03:02;;;;;;;29.83;18.58;;;10.20;86.30;;;;;;4896072;29;20044;-86
2022/04/05 06:05:30;;;;;;;29.73;17.97;;;10.30;86.30;;;;;;4896980;29;20425;-85
2022/04/05 06:07:57;;;;;;;27.63;16.60;;;10.20;86.20;;;;;;4897016;29;20053;-85
2022/04/05 06:10:25;;;;;;;28.77;18.15;;;10.20;86.20;;;;;;4900017;29;20056;-85
2022/04/05 06:12:55;;;;;;;34.85;19.55;;;10.30;86.20;;;;;;4896479;29;20055;-85
2022/04/05 06:15:25;;;;;;;35.50;18.25;;;10.20;86.20;;;;;;4898248;29;20055;-86
2022/04/05 06:17:52;;;;;;;37.22;20.08;;;10.30;86.20;;;;;;4896597;29;20048;-85
2022/04/05 06:20:21;;;;;;;40.10;21.45;;;10.20;86.20;;;;;;4896540;29;20053;-85
2022/04/05 06:22:50;;;;;;;41.25;21.13;;;10.20;86.20;;;;;;4898165;29;20140;-86
2022/04/05 06:25:22;;;;;;;32.70;21.38;;;10.20;86.20;;;;;;4899013;29;20056;-85
2022/04/05 06:27:49;;;;;;;41.83;23.52;;;10.30;86.30;;;;;;4896153;29;20068;-85
2022/04/05 06:30:17;;;;;;;34.65;22.27;;;10.30;86.30;;;;;;4896126;29;20565;-85
2022/04/05 06:32:45;;;;;;;39.78;22.23;;;10.30;86.30;;;;;;4896217;29;20411;-84
2022/04/05 06:35:13;;;;;;;35.60;22.85;;;10.30;86.30;;;;;;4896003;29;20049;-85
2022/04/05 06:37:43;;;;;;;38.20;21.88;;;10.30;86.30;;;;;;4898656;29;20109;-85
2022/04/05 06:40:11;;;;;;;36.00;21.42;;;10.30;86.30;;;;;;4897761;29;20155;-85
2022/04/05 06:42:43;;;;;;;36.90;22.27;;;10.30;86.30;;;;;;4895982;29;20112;-85
2022/04/05 06:45:15;;;;;;;33.90;21.67;;;10.30;86.30;;;;;;4895952;29;20048;-85
2022/04/05 06:47:42;;;;;;;38.30;21.27;;;10.30;86.30;;;;;;4897487;29;20057;-85
2022/04/05 06:50:10;;;;;;;34.92;20.10;;;10.30;86.30;;;;;;4895802;29;20093;-86
2022/04/05 06:52:39;;;;;;;36.38;21.63;;;10.40;86.30;;;;;;4898488;29;20059;-85
2022/04/05 06:55:08;;;;;;;30.33;20.05;;;10.40;86.30;;;;;;4897108;29;20059;-85
2022/04/05 06:57:36;;;;;;;33.15;19.70;;;10.40;86.30;;;;;;4891546;29;20059;-85
2022/04/05 07:00:08;;;;;;;32.50;19.88;;;10.40;86.30;;;;;;4892560;29;20048;-85
2022/04/05 07:02:36;;;;;;;29.67;18.50;;;10.40;86.30;;;;;;4895457;29;20080;-85
2022/04/05 07:05:04;;;;;;;34.05;18.73;;;10.40;86.30;;;;;;4895024;29;20041;-85
2022/04/05 07:07:31;;;;;;;25.23;17.23;;;10.40;86.30;;;;;;4899046;29;20056;-85
2022/04/05 07:09:58;;;;;;;31.05;18.80;;;10.40;86.30;;;;;;4897373;29;20100;-85
2022/04/05 07:12:26;;;;;;;23.52;16.75;;;10.40;86.30;;;;;;4897074;29;20056;-86
2022/04/05 07:14:53;;;;;;;31.35;17.65;;;10.40;86.20;;;;;;4895728;29;20128;-85
2022/04/05 07:17:20;;;;;;;24.98;17.08;;;10.50;86.30;;;;;;4895398;29;20049;-85
2022/04/05 07:19:47;;;;;;;24.48;17.10;;;10.50;86.30;;;;;;4895579;29;20049;-86
2022/04/05 07:22:14;;;;;;;23.67;15.15;;;10.50;86.20;;;;;;4892040;29;20112;-85
2022/04/05 07:24:41;;;;;;;27.90;15.77;;;10.50;86.20;;;;;;4894600;29;20052;-85
2022/04/05 07:27:08;;;;;;;25.80;15.10;;;10.50;86.20;;;;;;4894889;29;20048;-85
2022/04/05 07:29:35;;;;;;;22.42;14.98;;;10.50;86.20;;;;;;4894272;29;20051;-87
2022/04/05 07:32:03;;;;;;;24.75;14.65;;;10.50;86.20;;;;;;4893745;29;20048;-85
2022/04/05 07:34:30;;;;;;;23.20;13.48;;;10.50;86.20;;;;;;4897029;29;20052;-85
2022/04/05 07:36:57;;;;;;;22.50;13.68;;;10.60;86.20;;;;;;4895389;29;20060;-88
2022/04/05 07:39:25;;;;;;;27.30;14.43;;;10.60;86.20;;;;;;4894651;29;20399;-87
2022/04/05 07:41:52;;;;;;;22.88;13.13;;;10.60;86.20;;;;;;4895012;29;20052;-87
2022/04/05 07:44:19;;;;;;;20.48;12.63;;;10.60;86.20;;;;;;4894676;29;20063;-86
2022/04/05 07:46:46;;;;;;;20.23;13.50;;;10.60;86.20;;;;;;4896729;29;20056;-86
2022/04/05 07:49:14;;;;;;;21.15;12.88;;;10.60;86.10;;;;;;4896663;29;20052;-87
2022/04/05 07:51:41;;;;;;;18.27;12.88;;;10.70;86.10;;;;;;4894861;29;20048;-87
2022/04/05 07:54:08;;;;;;;20.20;11.75;;;10.70;86.10;;;;;;4894809;29;20044;-85
2022/04/05 07:56:35;;;;;;;21.45;13.45;;;10.70;86.10;;;;;;4894384;29;20056;-85
2022/04/05 07:59:04;;;;;;;19.45;11.68;;;10.70;86.10;;;;;;4894863;29;20410;-86
2022/04/05 08:01:32;;;;;;;18.73;11.90;;;10.70;86.00;;;;;;4897902;29;20132;-86
2022/04/05 08:03:59;;;;;;;23.90;12.57;;;10.70;86.00;;;;;;4894888;29;20097;-85
2022/04/05 08:06:31;;;;;;;20.38;12.02;;;10.80;86.00;;;;;;4894493;29;20057;-86
2022/04/05 08:08:59;;;;;;;20.95;12.30;;;10.80;86.00;;;;;;4893276;29;20052;-86
2022/04/05 08:11:27;;;;;;;21.40;12.45;;;10.80;85.90;;;;;;4894469;29;20068;-85
2022/04/05 08:13:56;;;;;;;16.08;11.68;;;10.80;85.90;;;;;;4895941;29;20067;-86
2022/04/05 08:16:28;;;;;;;14.85;10.38;;;10.90;85.90;;;;;;4893990;29;20425;-85
2022/04/05 08:18:57;;;;;;;20.85;11.77;;;10.90;85.90;;;;;;4894566;29;20056;-87
2022/04/05 08:21:24;;;;;;;16.23;11.05;;;10.90;85.90;;;;;;4894339;29;20053;-87
2022/04/05 08:23:52;;;;;;;16.35;10.30;;;10.90;85.80;;;;;;4894126;29;20048;-88
2022/04/05 08:26:19;;;;;;;16.83;11.30;;;10.90;85.80;;;;;;4893675;29;20434;-87
2022/04/05 08:28:55;;;;;;;16.98;10.98;;;10.90;85.80;;;;;;4895663;29;20149;-86
2022/04/05 08:31:23;;;;;;;14.38;10.35;;;10.90;85.80;;;;;;4900147;29;20044;-88
2022/04/05 08:33:54;;;;;;;15.13;10.38;;;10.90;85.70;;;;;;4896177;29;20073;-87
2022/04/05 08:36:28;;;;;;;14.95;10.50;;;10.90;85.70;;;;;;4895375;29;20430;-87
2022/04/05 08:39:01;;;;;;;17.45;10.85;;;11.00;85.60;;;;;;4893527;29;20143;-88
2022/04/05 08:41:35;;;;;;;15.90;11.10;;;11.00;85.60;;;;;;4894201;29;20060;-87
2022/04/05 08:44:02;;;;;;;17.47;10.50;;;11.00;85.60;;;;;;4879270;29;20059;-87
2022/04/05 08:46:33;;;;;;;16.38;10.30;;;11.10;85.60;;;;;;4893553;29;20413;-86
2022/04/05 08:49:02;;;;;;;16.50;10.25;;;11.10;85.60;;;;;;4895910;29;20064;-87
2022/04/05 08:51:30;;;;;;;19.27;10.18;;;11.10;85.60;;;;;;4893623;29;20059;-87
2022/04/05 08:53:57;;;;;;;15.50;10.13;;;11.10;85.60;;;;;;4893628;29;20433;-87
2022/04/05 08:56:27;;;;;;;16.27;10.02;;;11.20;85.60;;;;;;4893618;29;20044;-87
2022/04/05 08:58:54;;;;;;;14.57;9.18;;;11.20;85.50;;;;;;4894865;29;20113;-86
2022/04/05 09:01:21;;;;;;;19.00;10.48;;;11.20;85.50;;;;;;4897135;29;20049;-86
2022/04/05 09:03:49;;;;;;;21.05;10.43;;;11.30;85.40;;;;;;4895061;29;20056;-87
2022/04/05 09:06:36;;;;;;;15.18;10.23;;;11.30;85.40;;;;;;4893301;29;20052;-86
2022/04/05 09:09:08;;;;;;;17.77;10.60;;;11.30;85.30;;;;;;4893250;29;20074;-86
2022/04/05 09:11:48;;;;;;;16.33;10.13;;;11.40;85.30;;;;;;4894854;29;20052;-86
2022/04/05 09:14:27;;;;;;;14.85;9.65;;;11.30;85.20;;;;;;4895053;29;20057;-87
2022/04/05 09:17:06;;;;;;;14.65;8.90;;;11.40;85.20;;;;;;4894283;29;20061;-87
2022/04/05 09:19:46;;;;;;;16.98;9.25;;;11.40;85.10;;;;;;4893193;29;20060;-87
2022/04/05 09:22:13;;;;;;;16.02;9.10;;;11.40;85.00;;;;;;4895360;29;20053;-87
2022/04/05 09:24:45;;;;;;;12.90;9.48;;;11.40;84.90;;;;;;4893028;29;20068;-88
2022/04/05 09:27:12;;;;;;;20.02;9.70;;;11.50;84.90;;;;;;4893037;29;20044;-87
2022/04/05 09:29:40;;;;;;;14.45;9.38;;;11.40;84.80;;;;;;4891680;29;20056;-88
2022/04/05 09:32:08;;;;;;;16.88;9.52;;;11.50;84.80;;;;;;4893215;29;20049;-87
2022/04/05 09:34:50;;;;;;;18.50;9.95;;;11.50;84.80;;;;;;4895884;29;20092;-86
2022/04/05 09:37:25;;;;;;;15.18;8.82;;;11.50;84.70;;;;;;4893664;29;20056;-86
2022/04/05 09:39:55;;;;;;;16.73;8.88;;;11.60;84.60;;;;;;4894540;29;20052;-86
2022/04/05 09:42:22;;;;;;;13.02;8.35;;;11.60;84.60;;;;;;4893117;29;20104;-87
2022/04/05 09:44:49;;;;;;;14.23;8.65;;;11.60;84.50;;;;;;4892269;29;20462;-87
2022/04/05 09:47:21;;;;;;;16.90;9.60;;;11.70;84.50;;;;;;4891634;29;20045;-87
2022/04/05 09:49:50;;;;;;;15.57;8.73;;;11.70;84.40;;;;;;4894912;29;20059;-86
2022/04/05 09:52:30;;;;;;;15.57;8.80;;;11.70;84.40;;;;;;4895441;29;20044;-87
2022/04/05 09:55:11;;;;;;;15.73;8.45;;;11.70;84.30;;;;;;4893130;29;20057;-87
2022/04/05 09:57:38;;;;;;;13.80;8.20;;;11.80;84.30;;;;;;4892586;29;20522;-87
2022/04/05 10:00:17;;;;;;;13.98;8.13;;;11.80;84.20;;;;;;4892313;29;20045;-86
2022/04/05 10:03:02;;;;;;;14.73;7.97;;;11.80;84.10;;;;;;4892662;29;20422;-87
2022/04/05 10:05:30;;;;;;;12.10;7.43;;;11.90;84.00;;;;;;4892908;29;20052;-86
2022/04/05 10:07:58;;;;;;;11.35;7.28;;;11.90;83.90;;;;;;4893720;29;20045;-87
2022/04/05 10:10:25;;;;;;;13.82;7.75;;;11.90;83.90;;;;;;4896286;29;20060;-86
2022/04/05 10:12:53;;;;;;;10.82;7.00;;;11.90;83.80;;;;;;4893744;29;20048;-87
2022/04/05 10:15:24;;;;;;;12.48;7.20;;;11.90;83.70;;;;;;4892594;29;20056;-86
2022/04/05 10:17:53;;;;;;;12.90;6.78;;;11.90;83.60;;;;;;4892667;29;20502;-87
2022/04/05 10:20:22;;;;;;;12.60;7.53;;;11.90;83.50;;;;;;4893604;29;20113;-87
2022/04/05 10:22:54;;;;;;;10.95;7.00;;;11.90;83.40;;;;;;4894173;29;20049;-88
2022/04/05 10:25:22;;;;;;;12.07;7.38;;;12.00;83.30;;;;;;4895724;29;20052;-85
2022/04/05 10:27:50;;;;;;;12.07;6.85;;;12.00;83.30;;;;;;4892241;29;20060;-87
2022/04/05 10:30:25;;;;;;;11.93;7.38;;;12.00;83.20;;;;;;4892604;29;20056;-87
2022/04/05 10:33:03;;;;;;;10.65;7.18;;;12.00;83.10;;;;;;4892809;29;20052;-87
2022/04/05 10:35:32;;;;;;;10.05;6.43;;;12.10;83.00;;;;;;4892656;29;20056;-87
2022/04/05 10:38:20;;;;;;;13.45;7.10;;;12.10;82.90;;;;;;4890510;29;20064;-88
2022/04/05 10:41:14;;;;;;;12.20;7.22;;;12.10;82.80;;;;;;4891039;29;20072;-88
2022/04/05 10:43:43;;;;;;;15.65;7.05;;;12.10;82.80;;;;;;4891984;29;20056;-88
2022/04/05 10:46:10;;;;;;;14.23;8.00;;;12.10;82.80;;;;;;4893824;29;20065;-88
2022/04/05 10:48:54;;;;;;;15.00;7.28;;;12.20;82.80;;;;;;4892804;29;20528;-87
2022/04/05 10:51:30;;;;;;;14.65;7.45;;;12.20;82.70;;;;;;4898746;29;20403;-87
2022/04/05 10:54:34;;;;;;;17.33;8.65;;;12.30;82.70;;;;;;4895515;29;20049;-88
2022/04/05 10:57:16;;;;;;;12.65;7.55;;;12.30;82.60;;;;;;4894956;29;20051;-87
2022/04/05 11:00:07;;;;;;;16.02;8.52;;;12.40;82.60;;;;;;4895840;29;20052;-87
2022/04/05 11:03:00;;;;;;;18.08;8.20;;;12.40;82.60;;;;;;4888052;29;20052;-87
2022/04/05 11:05:41;;;;;;;15.35;8.98;;;12.50;82.60;;;;;;4893671;29;20061;-88
2022/04/05 11:08:15;;;;;;;13.57;8.10;;;12.50;82.60;;;;;;4881416;29;20109;-88
2022/04/05 11:10:45;;;;;;;15.35;8.48;;;12.60;82.50;;;;;;4895512;29;20108;-88
2022/04/05 11:13:20;;;;;;;15.40;8.00;;;12.70;82.40;;;;;;4897398;29;20052;-87
2022/04/05 11:15:53;;;;;;;14.07;8.32;;;12.70;82.20;;;;;;4895282;29;20477;-87
2022/04/05 11:18:27;;;;;;;13.43;8.10;;;12.80;82.00;;;;;;4894297;29;20119;-86
2022/04/05 11:20:59;;;;;;;11.40;7.90;;;12.90;81.90;;;;;;4896816;29;20127;-89
2022/04/05 11:23:46;;;;;;;14.85;7.85;;;12.90;81.70;;;;;;4897133;29;20056;-89
2022/04/05 11:26:25;;;;;;;16.10;7.78;;;12.90;81.50;;;;;;4881693;29;20052;-88
2022/04/05 11:28:54;;;;;;;13.57;7.70;;;12.90;81.30;;;;;;4896648;29;20064;-89
2022/04/05 11:31:39;;;;;;;11.65;6.80;;;12.90;81.10;;;;;;4898048;29;20053;-87
2022/04/05 11:34:39;;;;;;;15.30;7.82;;;13.00;80.90;;;;;;4896795;29;20422;-87
2022/04/05 11:37:07;;;;;;;16.27;7.88;;;13.00;80.70;;;;;;4895891;29;20049;-87
2022/04/05 11:39:39;;;;;;;11.90;7.13;;;13.00;80.60;;;;;;4896242;29;20056;-89
2022/04/05 11:42:07;;;;;;;17.02;8.32;;;13.10;80.40;;;;;;4894797;29;20134;-87
2022/04/05 11:44:34;;;;;;;12.30;7.80;;;13.00;80.30;;;;;;4895043;29;20048;-86
2022/04/05 11:47:01;;;;;;;12.52;7.90;;;13.00;80.10;;;;;;4879252;29;20060;-87
2022/04/05 11:49:40;;;;;;;17.48;7.97;;;13.00;80.00;;;;;;4895057;29;20060;-88
2022/04/05 11:52:08;;;;;;;12.80;7.13;;;13.10;79.90;;;;;;4897857;29;20111;-88
2022/04/05 11:56:00;;;;;;;21.90;9.07;;;13.00;79.80;;;;;;4894401;29;20056;-88
2022/04/05 11:57:24;;;;;;;14.43;7.68;;;13.00;79.70;;;;;;4894634;29;20532;-87
2022/04/05 12:00:05;;;;;;;12.02;7.78;;;13.10;79.70;;;;;;4892788;29;20136;-86
2022/04/05 12:02:32;;;;;;;13.70;8.18;;;13.00;79.70;;;;;;4894613;29;20045;-87
2022/04/05 12:04:59;;;;;;;14.93;7.95;;;13.10;79.60;;;;;;4894781;29;20087;-86
2022/04/05 12:07:32;;;;;;;11.23;6.95;;;13.00;79.60;;;;;;4898188;29;20064;-86
2022/04/05 12:09:59;;;;;;;17.17;8.52;;;13.00;79.50;;;;;;4896025;29;20056;-87
2022/04/05 12:12:26;;;;;;;14.35;8.10;;;13.10;79.60;;;;;;4894128;29;20067;-86
2022/04/05 12:14:53;;;;;;;14.23;7.43;;;13.10;79.50;;;;;;4894150;29;20059;-87
2022/04/05 12:17:23;;;;;;;17.85;8.18;;;13.10;79.50;;;;;;4895824;29;20056;-88
2022/04/05 12:19:52;;;;;;;11.68;7.57;;;13.20;79.50;;;;;;4896156;29;20056;-86
2022/04/05 12:22:19;;;;;;;17.52;8.10;;;13.20;79.50;;;;;;4896939;29;20116;-89
2022/04/05 12:24:53;;;;;;;16.83;6.95;;;13.20;79.40;;;;;;4893809;29;20112;-89
2022/04/05 12:27:22;;;;;;;9.68;6.63;;;13.20;79.30;;;;;;4892979;29;20076;-86
2022/04/05 12:29:55;;;;;;;13.73;8.02;;;13.30;79.20;;;;;;4895502;29;20057;-88
2022/04/05 12:32:36;;;;;;;14.32;8.70;;;13.30;79.10;;;;;;4892754;29;20075;-88
2022/04/05 12:35:05;;;;;;;13.15;7.75;;;13.30;79.00;;;;;;4892436;29;20083;-88
2022/04/05 12:37:34;;;;;;;11.93;7.15;;;13.30;78.80;;;;;;4896138;29;20045;-89
2022/04/05 12:40:00;;;;;;;16.55;9.02;;;13.30;78.70;;;;;;4894667;29;20059;-88
2022/04/05 12:42:39;;;;;;;12.52;7.80;;;13.30;78.60;;;;;;4893594;29;20057;-89